Time;durP1;ratioP1;P1;durP2;ratioP2;P2;SDS_P1;SDS_P2;PMS_P1;PMS_P2;Temp;Humidity;BMP_temperature;BMP_pressure;BME280_temperature;BME280_humidity;BME280_pressure;Samples;Min_cycle;Max_cycle;Signal;HPM_P1;HPM_P2
2022/01/08 00:00:26;;;;;;;;;0.00;0.00;;;;;-147.17;100.00;50434.56;5052950;28;51058;-61
2022/01/08 00:02:52;;;;;;;;;0.00;0.00;;;;;-147.17;100.00;50454.25;5055172;28;51120;-61
2022/01/08 00:05:18;;;;;;;;;4.00;4.00;;;;;-147.17;100.00;50432.59;5055529;28;51107;-61
2022/01/08 00:07:44;;;;;;;;;0.25;0.00;;;;;-147.17;100.00;50414.88;5054249;28;50957;-60
2022/01/08 00:10:10;;;;;;;;;0.00;0.00;;;;;-147.17;100.00;50432.59;5053998;28;51062;-61
2022/01/08 00:12:36;;;;;;;;;1.00;1.00;;;;;-147.17;100.00;50436.53;5054162;28;51034;-61
2022/01/08 00:15:01;;;;;;;;;0.00;0.00;;;;;-147.17;100.00;50414.88;5055510;28;51030;-61
2022/01/08 00:17:27;;;;;;;;;1.00;0.00;;;;;-147.17;100.00;50430.63;5054229;28;51125;-61
2022/01/08 00:19:52;;;;;;;;;0.00;0.00;;;;;-147.17;100.00;50428.66;5050612;28;53892;-60
2022/01/08 00:22:18;;;;;;;;;0.00;0.00;;;;;-147.17;100.00;50426.69;5056338;28;51123;-61
2022/01/08 00:24:44;;;;;;;;;0.00;0.00;;;;;-147.17;100.00;50416.84;5052479;28;51320;-62
2022/01/08 00:27:09;;;;;;;;;0.00;0.00;;;;;-147.17;100.00;50440.47;5052623;28;51353;-60
2022/01/08 00:29:35;;;;;;;;;0.00;0.00;;;;;-147.17;100.00;50438.50;5053972;28;51631;-60
2022/01/08 00:32:00;;;;;;;;;0.00;0.00;;;;;-147.17;100.00;50420.78;5055744;28;51811;-60
2022/01/08 00:34:25;;;;;;;;;0.67;0.00;;;;;-147.17;100.00;50434.56;5053639;28;51155;-61
2022/01/08 00:36:51;;;;;;;;;0.00;0.00;;;;;-147.17;100.00;50430.63;5045026;28;51240;-61
2022/01/08 00:39:16;;;;;;;;;0.25;0.00;;;;;-147.17;100.00;50452.28;5057112;28;51308;-61
2022/01/08 00:41:41;;;;;;;;;0.00;0.00;;;;;-147.17;100.00;50410.94;5053360;28;50970;-60
2022/01/08 00:44:07;;;;;;;;;1.00;0.00;;;;;-147.17;100.00;50426.69;5053487;28;51559;-61
2022/01/08 00:46:32;;;;;;;;;0.00;0.00;;;;;-147.17;100.00;50397.16;5055853;28;51436;-60
2022/01/08 00:48:58;;;;;;;;;1.00;0.00;;;;;-147.17;100.00;50418.81;5050682;28;51537;-60
2022/01/08 00:51:23;;;;;;;;;0.75;0.00;;;;;-147.17;100.00;50430.63;5055913;28;50895;-60
2022/01/08 00:53:48;;;;;;;;;0.00;0.00;;;;;-147.17;100.00;50446.38;5054170;28;50863;-60
2022/01/08 00:56:14;;;;;;;;;0.00;0.00;;;;;-147.17;100.00;50408.97;5053797;28;51031;-60
2022/01/08 00:58:41;;;;;;;;;0.75;0.75;;;;;-147.17;100.00;50414.88;5053590;28;51856;-60
2022/01/08 01:01:06;;;;;;;;;0.00;0.00;;;;;-147.17;100.00;50430.63;5056408;28;51179;-60
2022/01/08 01:03:32;;;;;;;;;0.50;0.50;;;;;-147.17;100.00;50403.06;5053779;28;51560;-60
2022/01/08 01:05:57;;;;;;;;;0.50;0.50;;;;;-147.17;100.00;50426.69;5048642;28;51278;-63
2022/01/08 01:08:22;;;;;;;;;2.00;1.00;;;;;-147.17;100.00;50399.13;5048646;28;51298;-61
2022/01/08 01:10:48;;;;;;;;;0.00;0.00;;;;;-147.17;100.00;50395.19;5051910;28;51150;-62
2022/01/08 01:13:13;;;;;;;;;1.50;1.50;;;;;-147.17;100.00;50418.81;5053270;28;52079;-62
2022/01/08 01:15:39;;;;;;;;;1.00;1.00;;;;;-147.17;100.00;50393.22;5049711;28;51292;-61
2022/01/08 01:18:05;;;;;;;;;1.75;1.75;;;;;-147.17;100.00;50391.25;5048729;28;51186;-61
2022/01/08 01:20:30;;;;;;;;;1.00;1.00;;;;;-147.17;100.00;50414.88;5047528;28;51195;-61
2022/01/08 01:25:36;;;;;;;;;1.00;1.00;;;;;-147.17;100.00;50410.94;5041601;28;51395;-61
2022/01/08 01:28:21;;;;;;;;;2.00;1.00;;;;;-147.17;100.00;50408.97;5048062;28;51128;-61
2022/01/08 01:47:02;;;;;;;;;1.00;1.00;;;;;-147.17;100.00;50407.00;5048102;28;51370;-61
2022/01/08 01:49:31;;;;;;;;;2.00;1.00;;;;;-147.17;100.00;50401.09;5042588;28;51147;-61
2022/01/08 01:51:58;;;;;;;;;0.50;0.50;;;;;-147.17;100.00;50367.63;5067972;27;52749;-61
2022/01/08 01:54:24;;;;;;;;;1.00;0.50;;;;;-147.17;100.00;50407.00;5039334;28;51361;-61
2022/01/08 01:56:49;;;;;;;;;1.00;1.00;;;;;-147.17;100.00;50416.84;5046312;28;51253;-62
2022/01/08 01:59:15;;;;;;;;;1.25;1.25;;;;;-147.17;100.00;50385.34;5050034;28;51800;-61
2022/01/08 02:01:40;;;;;;;;;0.00;0.00;;;;;-147.17;100.00;50407.00;5045366;28;51095;-61
2022/01/08 02:04:06;;;;;;;;;1.00;1.00;;;;;-147.17;100.00;50399.13;5049247;28;51165;-61
2022/01/08 02:06:31;;;;;;;;;1.00;1.00;;;;;-147.17;100.00;50422.75;5039680;28;50898;-61
2022/01/08 02:08:56;;;;;;;;;1.75;1.75;;;;;-147.17;100.00;50434.56;5044758;28;51754;-61
2022/01/08 02:11:22;;;;;;;;;2.75;1.75;;;;;-147.17;100.00;50395.19;5045162;28;51061;-61
2022/01/08 02:13:48;;;;;;;;;1.75;1.75;;;;;-147.17;100.00;50405.03;5044920;28;51181;-61
2022/01/08 02:16:17;;;;;;;;;1.00;0.75;;;;;-147.17;100.00;50412.91;5051121;28;50844;-61
2022/01/08 02:18:47;;;;;;;;;1.00;0.50;;;;;-147.17;100.00;50375.50;5046015;28;51066;-61
2022/01/08 02:21:14;;;;;;;;;1.25;1.00;;;;;-147.17;100.00;50367.63;5043582;28;51145;-61
2022/01/08 02:23:41;;;;;;;;;1.50;1.50;;;;;-147.17;100.00;50395.19;5051974;28;50934;-62
2022/01/08 02:26:08;;;;;;;;;1.75;0.50;;;;;-147.17;100.00;50418.81;5048710;28;51120;-61
2022/01/08 02:28:36;;;;;;;;;2.00;1.00;;;;;-147.17;100.00;50371.56;5051235;28;50943;-62
2022/01/08 02:31:02;;;;;;;;;1.00;1.00;;;;;-147.17;100.00;50369.59;5051650;28;50927;-61
2022/01/08 02:33:29;;;;;;;;;2.00;1.00;;;;;-147.17;100.00;50383.38;5052108;28;51088;-62
2022/01/08 02:35:55;;;;;;;;;0.00;0.00;;;;;-147.17;100.00;50393.22;5051440;28;51375;-62
2022/01/08 02:38:20;;;;;;;;;1.25;1.00;;;;;-147.17;100.00;50410.94;5049718;28;51110;-62
2022/01/08 02:40:55;;;;;;;;;1.75;1.25;;;;;-147.17;100.00;50391.25;5052593;28;51188;-61
2022/01/08 02:43:20;;;;;;;;;1.25;0.25;;;;;-147.17;100.00;50420.78;5052137;28;51163;-61
2022/01/08 02:45:46;;;;;;;;;1.00;1.00;;;;;-147.17;100.00;50426.69;5049955;28;51478;-61
2022/01/08 02:48:11;;;;;;;;;1.00;1.00;;;;;-147.17;100.00;50399.13;5047733;28;51902;-61
2022/01/08 02:50:37;;;;;;;;;0.00;0.00;;;;;-147.17;100.00;50408.97;5051396;28;51169;-61
2022/01/08 02:53:02;;;;;;;;;1.00;1.00;;;;;-147.17;100.00;50403.06;5052992;28;50960;-61
2022/01/08 02:55:27;;;;;;;;;1.00;1.00;;;;;-147.17;100.00;50424.72;5048614;28;51178;-60
2022/01/08 02:57:53;;;;;;;;;1.50;0.75;;;;;-147.17;100.00;50422.75;5051119;28;51948;-63
2022/01/08 03:00:20;;;;;;;;;0.75;0.75;;;;;-147.17;100.00;50418.81;5052347;28;51037;-60
2022/01/08 03:02:51;;;;;;;;;1.00;1.00;;;;;-147.17;100.00;50418.81;5041705;28;51008;-61
2022/01/08 03:05:17;;;;;;;;;0.50;0.50;;;;;-147.17;100.00;50422.75;5042747;28;51193;-61
2022/01/08 03:07:44;;;;;;;;;0.00;0.00;;;;;-147.17;100.00;50428.66;5051031;28;51712;-61
2022/01/08 03:10:12;;;;;;;;;0.00;0.00;;;;;-147.17;100.00;50424.72;5051333;28;51202;-60
2022/01/08 03:12:41;;;;;;;;;1.00;1.00;;;;;-147.17;100.00;50387.31;5051102;28;51119;-61
2022/01/08 03:15:11;;;;;;;;;0.00;0.00;;;;;-147.17;100.00;50414.88;5050377;28;51260;-61
2022/01/08 03:17:37;;;;;;;;;0.00;0.00;;;;;-147.17;100.00;50407.00;5050878;28;51795;-60
2022/01/08 03:20:06;;;;;;;;;0.50;0.50;;;;;-147.17;100.00;50420.78;5050469;28;51419;-61
2022/01/08 03:22:32;;;;;;;;;0.33;0.33;;;;;-147.17;100.00;50418.81;5049779;28;53300;-61
2022/01/08 03:24:59;;;;;;;;;0.00;0.00;;;;;-147.17;100.00;50424.72;5045802;28;51230;-61
2022/01/08 03:27:25;;;;;;;;;0.00;0.00;;;;;-147.17;100.00;50408.97;5050197;28;52943;-61
2022/01/08 03:29:50;;;;;;;;;0.00;0.00;;;;;-147.17;100.00;50405.03;5051813;28;50970;-61
2022/01/08 03:32:15;;;;;;;;;0.50;0.50;;;;;-147.17;100.00;50414.88;5052405;28;51097;-61
2022/01/08 03:34:41;;;;;;;;;0.75;0.75;;;;;-147.17;100.00;50436.53;5050524;28;51156;-61
2022/01/08 03:37:06;;;;;;;;;1.00;0.00;;;;;-147.17;100.00;50418.81;5051886;28;51833;-61
2022/01/08 03:39:32;;;;;;;;;1.00;0.00;;;;;-147.17;100.00;50436.53;5054108;28;51791;-61
2022/01/08 03:41:57;;;;;;;;;0.00;0.00;;;;;-147.17;100.00;50422.75;5054315;28;50883;-61
2022/01/08 03:44:24;;;;;;;;;0.00;0.00;;;;;-147.17;100.00;50418.81;5054828;28;51124;-61
2022/01/08 03:46:49;;;;;;;;;1.00;1.00;;;;;-147.17;100.00;50412.91;5044963;28;54048;-60
2022/01/08 03:49:25;;;;;;;;;0.00;0.00;;;;;-147.17;100.00;50399.13;5048365;28;51069;-61
2022/01/08 03:51:53;;;;;;;;;0.25;0.25;;;;;-147.17;100.00;50403.06;5055518;28;50947;-60
2022/01/08 03:54:18;;;;;;;;;0.00;0.00;;;;;-147.17;100.00;50414.88;5053933;28;51163;-61
2022/01/08 03:56:44;;;;;;;;;1.00;1.00;;;;;-147.17;100.00;50395.19;5054272;28;52224;-61
2022/01/08 03:59:09;;;;;;;;;1.00;1.00;;;;;-147.17;100.00;50403.06;5054262;28;51245;-61
2022/01/08 04:01:34;;;;;;;;;0.00;0.00;;;;;-147.17;100.00;50428.66;5055498;28;51179;-62
2022/01/08 04:04:00;;;;;;;;;1.50;1.50;;;;;-147.17;100.00;50393.22;5054767;28;51322;-62
2022/01/08 04:06:25;;;;;;;;;1.00;1.00;;;;;-147.17;100.00;50385.34;5054274;28;51864;-62
2022/01/08 04:08:56;;;;;;;;;1.00;1.00;;;;;-147.17;100.00;50418.81;5046404;28;51225;-62
2022/01/08 04:11:22;;;;;;;;;0.00;0.00;;;;;-147.17;100.00;50407.00;5055605;28;51136;-61
2022/01/08 04:13:48;;;;;;;;;0.00;0.00;;;;;-147.17;100.00;50414.88;5052772;28;51020;-62
2022/01/08 04:16:18;;;;;;;;;0.00;0.00;;;;;-147.17;100.00;50410.94;5053583;28;51708;-60
2022/01/08 04:18:44;;;;;;;;;0.00;0.00;;;;;-147.17;100.00;50412.91;5053577;28;51183;-62
2022/01/08 04:23:40;;;;;;;;;0.00;0.00;;;;;-147.17;100.00;50381.41;5053953;28;51157;-61
2022/01/08 04:26:06;;;;;;;;;0.00;0.00;;;;;-147.17;100.00;50414.88;5052948;28;51014;-62
2022/01/08 04:28:31;;;;;;;;;1.00;1.00;;;;;-147.17;100.00;50397.16;5053961;28;51059;-64
2022/01/08 04:30:57;;;;;;;;;2.50;2.00;;;;;-147.17;100.00;50407.00;5053428;28;50946;-61
2022/01/08 04:33:22;;;;;;;;;1.75;0.75;;;;;-147.17;100.00;50399.13;5053717;28;51265;-61
2022/01/08 04:35:48;;;;;;;;;2.00;1.00;;;;;-147.17;100.00;50403.06;5053443;28;51087;-60
2022/01/08 04:38:13;;;;;;;;;1.00;1.00;;;;;-147.17;100.00;50403.06;5053152;28;51045;-60
2022/01/08 04:40:40;;;;;;;;;1.00;0.75;;;;;-147.17;100.00;50430.63;5054985;28;51462;-62
2022/01/08 04:43:06;;;;;;;;;1.25;0.00;;;;;-147.17;100.00;50391.25;5054120;28;51072;-61
2022/01/08 04:45:31;;;;;;;;;1.00;1.00;;;;;-147.17;100.00;50387.31;5054260;28;51267;-61
2022/01/08 04:47:58;;;;;;;;;0.25;0.00;;;;;-147.17;100.00;50379.44;5051618;28;51341;-60
2022/01/08 04:50:25;;;;;;;;;0.00;0.00;;;;;-147.17;100.00;50383.38;5052093;28;51142;-61
2022/01/08 04:52:51;;;;;;;;;0.00;0.00;;;;;-147.17;100.00;50383.38;5053775;28;51021;-61
2022/01/08 04:55:17;;;;;;;;;0.00;0.00;;;;;-147.17;100.00;50377.47;5053503;28;51834;-61
2022/01/08 04:57:42;;;;;;;;;1.00;0.00;;;;;-147.17;100.00;50379.44;5054032;28;51028;-61
2022/01/08 05:00:08;;;;;;;;;0.00;0.00;;;;;-147.17;100.00;50383.38;5054717;28;51000;-62
2022/01/08 05:02:33;;;;;;;;;0.00;0.00;;;;;-147.17;100.00;50377.47;5046951;28;51144;-61
2022/01/08 05:04:58;;;;;;;;;0.00;0.00;;;;;-147.17;100.00;50381.41;5052098;28;51171;-60
2022/01/08 05:07:24;;;;;;;;;1.00;1.00;;;;;-147.17;100.00;50355.81;5053538;28;51212;-61
2022/01/08 05:09:49;;;;;;;;;0.75;0.75;;;;;-147.17;100.00;50393.22;5053753;28;51390;-60
2022/01/08 05:12:15;;;;;;;;;1.00;1.00;;;;;-147.17;100.00;50379.44;5054422;28;51413;-61
2022/01/08 05:14:42;;;;;;;;;0.00;0.00;;;;;-147.17;100.00;50371.56;5052767;28;51119;-60
2022/01/08 05:17:07;;;;;;;;;0.00;0.00;;;;;-147.17;100.00;50383.38;5053395;28;51197;-62
2022/01/08 05:19:49;;;;;;;;;0.50;0.50;;;;;-147.17;100.00;50367.63;5051533;28;51774;-63
2022/01/08 05:22:23;;;;;;;;;0.00;0.00;;;;;-147.17;100.00;50377.47;5054270;28;50890;-62
2022/01/08 05:24:51;;;;;;;;;1.75;1.00;;;;;-147.17;100.00;50377.47;5051533;28;51930;-61
2022/01/08 05:27:17;;;;;;;;;0.00;0.00;;;;;-147.17;100.00;50375.50;5053599;28;51302;-61
2022/01/08 05:29:44;;;;;;;;;0.00;0.00;;;;;-147.17;100.00;50379.44;5053520;28;51100;-61
2022/01/08 05:32:16;;;;;;;;;0.75;0.75;;;;;-147.17;100.00;50371.56;5050149;28;50997;-61
2022/01/08 05:34:41;;;;;;;;;0.00;0.00;;;;;-147.17;100.00;50389.28;5052892;28;51106;-60
2022/01/08 05:37:07;;;;;;;;;0.00;0.00;;;;;-147.17;100.00;50367.63;5049989;28;51286;-61
2022/01/08 05:39:32;;;;;;;;;0.00;0.00;;;;;-147.17;100.00;50371.56;5051769;28;51170;-61
2022/01/08 05:41:57;;;;;;;;;0.50;0.50;;;;;-147.17;100.00;50383.38;5053434;28;51099;-60
2022/01/08 05:44:23;;;;;;;;;1.25;1.00;;;;;-147.17;100.00;50332.19;5052832;28;52661;-60
2022/01/08 05:46:48;;;;;;;;;1.50;1.50;;;;;-147.17;100.00;50369.59;5052647;28;51008;-61
2022/01/08 05:49:15;;;;;;;;;0.00;0.00;;;;;-147.17;100.00;50357.78;5050946;28;51656;-61
2022/01/08 05:51:40;;;;;;;;;0.00;0.00;;;;;-147.17;100.00;50375.50;5053294;28;52808;-61
2022/01/08 05:54:06;;;;;;;;;0.00;0.00;;;;;-147.17;100.00;50351.88;5052564;28;51146;-61
2022/01/08 05:56:31;;;;;;;;;0.00;0.00;;;;;-147.17;100.00;50393.22;5045804;28;51050;-62
2022/01/08 05:58:56;;;;;;;;;2.00;1.00;;;;;-147.17;100.00;50369.59;5052125;28;51156;-61
2022/01/08 06:01:22;;;;;;;;;0.75;0.75;;;;;-147.17;100.00;50371.56;5051773;28;51287;-61
2022/01/08 06:03:47;;;;;;;;;1.00;0.00;;;;;-147.17;100.00;50371.56;5051517;28;52823;-61
2022/01/08 06:06:12;;;;;;;;;0.00;0.00;;;;;-147.17;100.00;50359.75;5052807;28;50938;-61
2022/01/08 06:08:38;;;;;;;;;0.50;0.00;;;;;-147.17;100.00;50363.69;5051733;28;51322;-61
2022/01/08 06:11:03;;;;;;;;;0.00;0.00;;;;;-147.17;100.00;50385.34;5053738;28;51355;-60
2022/01/08 06:13:28;;;;;;;;;0.00;0.00;;;;;-147.17;100.00;50353.84;5050845;28;51230;-60
2022/01/08 06:15:53;;;;;;;;;0.00;0.00;;;;;-147.17;100.00;50340.06;5052288;28;50982;-61
2022/01/08 06:18:19;;;;;;;;;0.50;0.50;;;;;-147.17;100.00;50355.81;5051271;28;52587;-62
2022/01/08 06:20:44;;;;;;;;;1.00;0.00;;;;;-147.17;100.00;50347.94;5053004;28;51335;-61
2022/01/08 06:23:09;;;;;;;;;0.75;0.50;;;;;-147.17;100.00;50383.38;5052540;28;51911;-62
2022/01/08 06:25:35;;;;;;;;;0.75;0.50;;;;;-147.17;100.00;50334.16;5052680;28;51222;-61
2022/01/08 06:28:00;;;;;;;;;0.50;0.50;;;;;-147.17;100.00;50391.25;5050098;28;51166;-62
2022/01/08 06:30:26;;;;;;;;;0.00;0.00;;;;;-147.17;100.00;50369.59;5049866;28;50926;-61
2022/01/08 06:32:51;;;;;;;;;0.25;0.25;;;;;-147.17;100.00;50379.44;5049548;28;51934;-63
2022/01/08 06:35:16;;;;;;;;;1.00;1.00;;;;;-147.17;100.00;50363.69;5053074;28;51103;-61
2022/01/08 06:37:42;;;;;;;;;1.00;1.00;;;;;-147.17;100.00;50351.88;5050634;28;51278;-62
2022/01/08 06:40:09;;;;;;;;;0.50;0.00;;;;;-147.17;100.00;50363.69;5052888;28;51367;-62
2022/01/08 06:42:34;;;;;;;;;1.00;0.00;;;;;-147.17;100.00;50367.63;5051224;28;52889;-62
2022/01/08 06:45:00;;;;;;;;;1.00;0.67;;;;;-147.17;100.00;50371.56;5049785;28;51305;-62
2022/01/08 06:47:25;;;;;;;;;1.25;0.50;;;;;-147.17;100.00;50357.78;5051994;28;51004;-62
2022/01/08 06:49:50;;;;;;;;;1.50;1.00;;;;;-147.17;100.00;50357.78;5051699;28;51099;-62
2022/01/08 06:52:16;;;;;;;;;0.75;0.75;;;;;-147.17;100.00;50379.44;5051997;28;51041;-62
2022/01/08 06:54:41;;;;;;;;;1.50;1.50;;;;;-147.17;100.00;50332.19;5051206;28;51180;-61
2022/01/08 06:57:06;;;;;;;;;1.25;1.00;;;;;-147.17;100.00;50375.50;5051540;28;51070;-61
2022/01/08 06:59:32;;;;;;;;;1.50;1.25;;;;;-147.17;100.00;50314.47;5050702;28;51445;-62
2022/01/08 07:01:58;;;;;;;;;2.50;2.50;;;;;-147.17;100.00;50344.00;5050673;28;52116;-62
2022/01/08 07:04:23;;;;;;;;;1.50;1.50;;;;;-147.17;100.00;50377.47;5052005;28;51290;-62
2022/01/08 07:06:48;;;;;;;;;0.00;0.00;;;;;-147.17;100.00;50328.25;5050650;28;51111;-61
2022/01/08 07:09:14;;;;;;;;;0.75;0.75;;;;;-147.17;100.00;50340.06;5049097;28;52506;-62
2022/01/08 07:11:39;;;;;;;;;1.25;1.00;;;;;-147.17;100.00;50347.94;5054958;28;50931;-63
2022/01/08 07:14:04;;;;;;;;;1.00;1.00;;;;;-147.17;100.00;50342.03;5058920;28;50934;-62
2022/01/08 07:16:30;;;;;;;;;1.00;1.00;;;;;-147.17;100.00;50340.06;5056351;28;51230;-62
2022/01/08 07:18:55;;;;;;;;;2.00;1.25;;;;;-147.17;100.00;50328.25;5051139;28;51219;-62
2022/01/08 07:21:21;;;;;;;;;2.25;1.00;;;;;-147.17;100.00;50340.06;5059388;28;51595;-62
2022/01/08 07:23:46;;;;;;;;;2.00;2.00;;;;;-147.17;100.00;50334.16;5056170;28;51037;-62
2022/01/08 07:26:11;;;;;;;;;2.75;2.00;;;;;-147.17;100.00;50318.41;5057080;28;51094;-62
2022/01/08 07:28:39;;;;;;;;;2.25;2.25;;;;;-147.17;100.00;50347.94;5058631;28;51917;-62
2022/01/08 07:31:05;;;;;;;;;2.25;2.25;;;;;-147.17;100.00;50312.53;5056376;28;51710;-62
2022/01/08 07:33:30;;;;;;;;;1.00;1.00;;;;;-147.17;100.00;50304.66;5057170;28;51245;-62
2022/01/08 07:35:55;;;;;;;;;3.75;2.00;;;;;-147.17;100.00;50320.38;5058084;28;51005;-61
2022/01/08 07:38:22;;;;;;;;;4.25;4.25;;;;;-147.17;100.00;50320.38;5056812;28;51096;-62
2022/01/08 07:40:51;;;;;;;;;2.00;2.00;;;;;-147.17;100.00;50344.00;5056402;28;51145;-62
2022/01/08 07:43:17;;;;;;;;;2.00;2.00;;;;;-147.17;100.00;50316.44;5056665;28;51120;-62
2022/01/08 07:45:42;;;;;;;;;1.25;1.00;;;;;-147.17;100.00;50304.66;5055452;28;51386;-61
2022/01/08 07:48:08;;;;;;;;;2.75;2.25;;;;;-147.17;100.00;50304.66;5051696;28;50956;-61
2022/01/08 07:50:33;;;;;;;;;2.00;2.00;;;;;-147.17;100.00;50312.53;5054875;28;51098;-61
2022/01/08 07:52:58;;;;;;;;;5.00;3.00;;;;;-147.17;100.00;50294.81;5043668;28;51075;-61
2022/01/08 07:55:24;;;;;;;;;1.50;1.00;;;;;-147.17;100.00;50296.78;5049323;28;51982;-61
2022/01/08 07:57:49;;;;;;;;;3.00;2.00;;;;;-147.17;100.00;50300.72;5057860;28;51299;-61
2022/01/08 08:00:15;;;;;;;;;6.25;3.00;;;;;-147.17;100.00;50284.97;5057025;28;52238;-62
2022/01/08 08:02:41;;;;;;;;;2.00;2.00;;;;;-147.17;100.00;50284.97;5056230;28;51210;-61
2022/01/08 08:05:07;;;;;;;;;5.25;3.00;;;;;-147.17;100.00;50302.69;5053921;28;51173;-61
2022/01/08 08:07:40;;;;;;;;;4.00;3.00;;;;;-147.17;100.00;50308.59;5055564;28;51425;-62
2022/01/08 08:10:17;;;;;;;;;2.00;2.00;;;;;-147.17;100.00;50308.59;5055034;28;50893;-61
2022/01/08 08:12:43;;;;;;;;;2.25;1.75;;;;;-147.17;100.00;50284.97;5058129;28;51012;-62
2022/01/08 08:15:12;;;;;;;;;3.00;2.75;;;;;-147.17;100.00;50300.72;5055706;28;51113;-61
2022/01/08 08:17:38;;;;;;;;;2.75;2.25;;;;;-147.17;100.00;50318.41;5049402;28;51149;-61
2022/01/08 08:20:04;;;;;;;;;2.00;1.00;;;;;-147.17;100.00;50306.63;5057531;28;51880;-62
2022/01/08 08:22:30;;;;;;;;;2.00;2.00;;;;;-147.17;100.00;50277.09;5056387;28;51171;-61
2022/01/08 08:24:55;;;;;;;;;3.00;1.75;;;;;-147.17;100.00;50314.47;5053906;28;51214;-60
2022/01/08 08:27:21;;;;;;;;;3.00;3.00;;;;;-147.17;100.00;50318.41;5053954;28;51172;-60
2022/01/08 08:29:46;;;;;;;;;3.50;2.25;;;;;-147.17;100.00;50283.00;5053204;28;51858;-61
2022/01/08 08:32:12;;;;;;;;;4.00;3.75;;;;;-147.17;100.00;50314.47;5054104;28;50985;-61
2022/01/08 08:34:38;;;;;;;;;4.25;3.00;;;;;-147.17;100.00;50286.94;5052938;28;52426;-60
2022/01/08 08:37:04;;;;;;;;;3.00;2.75;;;;;-147.17;100.00;50281.03;5049911;28;51147;-60
2022/01/08 08:39:29;;;;;;;;;7.00;4.25;;;;;-147.17;100.00;50269.22;5050655;28;51155;-60
2022/01/08 08:41:55;;;;;;;;;3.00;3.00;;;;;-147.17;100.00;50233.78;5309897;22;51465;-68
2022/01/08 08:44:20;;;;;;;;;4.00;3.00;;;;;-147.17;100.00;50263.31;5298056;22;51357;-66
2022/01/08 08:46:46;;;;;;;;;3.50;3.00;;;;;-147.17;100.00;50261.34;5019572;28;51317;-67
2022/01/08 08:49:11;;;;;;;;;3.00;3.00;;;;;-147.17;100.00;50251.50;5013014;28;52157;-69
2022/01/08 08:51:37;;;;;;;;;3.75;3.75;;;;;-147.17;100.00;50221.97;5016121;28;51073;-65
2022/01/08 08:56:38;;;;;;;;;3.75;2.75;;;;;-147.17;100.00;50210.16;5445546;22;51160;-60
2022/01/08 08:59:04;;;;;;;;;3.00;2.00;;;;;-147.17;100.00;50208.19;5052163;28;52942;-61
2022/01/08 09:01:29;;;;;;;;;6.50;5.00;;;;;-147.17;100.00;50174.72;5051083;28;51146;-59
2022/01/08 09:03:55;;;;;;;;;4.25;4.25;;;;;-147.17;100.00;50200.31;5051725;28;51234;-59
2022/01/08 09:06:20;;;;;;;;;5.00;3.75;;;;;-147.17;100.00;50176.69;5053066;28;51183;-59
2022/01/08 09:08:46;;;;;;;;;7.50;5.50;;;;;-147.17;100.00;50210.16;5049323;28;51138;-60
2022/01/08 09:11:11;;;;;;;;;5.25;5.25;;;;;-147.17;100.00;50158.97;5048249;28;51011;-60
2022/01/08 09:13:37;;;;;;;;;8.00;7.50;;;;;-147.17;100.00;50200.31;5049819;28;51000;-60
2022/01/08 09:16:03;;;;;;;;;7.25;7.00;;;;;-147.17;100.00;50141.25;5040436;28;51167;-60
2022/01/08 09:18:28;;;;;;;;;7.75;6.00;;;;;-147.17;100.00;50170.78;5052759;28;52081;-60
2022/01/08 09:20:54;;;;;;;;;6.00;5.50;;;;;-147.17;100.00;50186.53;5045515;28;51403;-59
2022/01/08 09:23:19;;;;;;;;;7.25;7.25;;;;;-147.17;100.00;50180.63;5051369;28;51089;-59
2022/01/08 09:25:44;;;;;;;;;5.50;5.00;;;;;-147.17;100.00;50164.88;5045433;28;51496;-60
2022/01/08 09:28:10;;;;;;;;;7.25;6.00;;;;;-147.17;100.00;50178.66;5045171;28;51112;-59
2022/01/08 09:30:35;;;;;;;;;7.25;7.00;;;;;-147.17;100.00;50166.84;5043201;28;51045;-59
2022/01/08 09:33:01;;;;;;;;;7.00;6.50;;;;;-147.17;100.00;50206.22;5042819;28;51144;-59
2022/01/08 09:35:27;;;;;;;;;8.75;7.00;;;;;-147.17;100.00;50174.72;5049276;28;51032;-61
2022/01/08 09:37:54;;;;;;;;;8.00;8.00;;;;;-147.17;100.00;50160.94;5050713;28;52041;-61
2022/01/08 09:40:21;;;;;;;;;7.50;7.00;;;;;-147.17;100.00;50151.09;5048583;28;50997;-59
2022/01/08 09:42:49;;;;;;;;;8.25;7.00;;;;;-147.17;100.00;50172.75;5051543;28;51257;-59
2022/01/08 09:45:15;;;;;;;;;6.25;5.50;;;;;-147.17;100.00;50178.66;5050561;28;51138;-59
2022/01/08 09:47:41;;;;;;;;;7.75;6.50;;;;;-147.17;100.00;50141.25;5048538;28;53983;-59
2022/01/08 09:50:08;;;;;;;;;10.50;8.25;;;;;-147.17;100.00;50155.03;5046908;28;51184;-59
2022/01/08 09:52:34;;;;;;;;;7.50;7.50;;;;;-147.17;100.00;50145.19;5052972;28;51022;-59
2022/01/08 09:55:00;;;;;;;;;8.00;7.00;;;;;-147.17;100.00;50127.47;5053048;28;51223;-58
2022/01/08 09:57:25;;;;;;;;;7.00;6.75;;;;;-147.17;100.00;50198.34;5031918;28;51330;-59
2022/01/08 09:59:52;;;;;;;;;7.00;6.25;;;;;-147.17;100.00;50137.31;5016642;28;51248;-58
2022/01/08 10:02:22;;;;;;;;;11.50;8.75;;;;;-147.17;100.00;50143.22;5012570;28;51043;-59
2022/01/08 10:04:47;;;;;;;;;7.00;5.50;;;;;-147.17;100.00;50127.47;5021405;28;51140;-59
2022/01/08 10:07:13;;;;;;;;;8.25;8.25;;;;;-147.17;100.00;50109.75;5026340;28;51659;-59
2022/01/08 10:09:38;;;;;;;;;9.50;9.25;;;;;-147.17;100.00;50127.47;5027506;28;51096;-58
2022/01/08 10:12:04;;;;;;;;;11.25;9.25;;;;;-147.17;100.00;50103.84;5026502;28;51241;-58
2022/01/08 10:17:13;;;;;;;;;10.00;8.25;;;;;-147.17;100.00;50076.31;5015944;28;51348;-58
2022/01/08 10:17:45;;;;;;;;;6.00;4.00;;;;;-147.17;100.00;50097.94;5016690;28;51716;-58
2022/01/08 10:20:10;;;;;;;;;8.00;8.00;;;;;-147.17;100.00;50109.75;5016063;28;51511;-59
2022/01/08 10:22:36;;;;;;;;;6.00;6.00;;;;;-147.17;100.00;50084.19;5022555;28;52021;-58
2022/01/08 10:25:11;;;;;;;;;9.00;8.00;;;;;-147.17;100.00;50095.97;5029367;28;51150;-59
2022/01/08 10:27:37;;;;;;;;;10.00;7.25;;;;;-147.17;100.00;50107.78;5019135;28;53219;-59
2022/01/08 10:30:04;;;;;;;;;10.25;8.75;;;;;-147.17;100.00;50103.84;5016113;28;51117;-58
2022/01/08 10:32:29;;;;;;;;;7.25;7.00;;;;;-147.17;100.00;50103.84;5023161;28;51181;-58
2022/01/08 10:34:55;;;;;;;;;7.00;6.25;;;;;-147.17;100.00;50109.75;5025387;28;51056;-57
2022/01/08 10:37:20;;;;;;;;;6.25;6.00;;;;;-147.17;100.00;50084.19;5020380;28;51898;-55
2022/01/08 10:39:53;;;;;;;;;8.50;7.00;;;;;-147.17;100.00;50054.66;5016138;28;51115;-57
2022/01/08 10:42:19;;;;;;;;;6.50;5.25;;;;;-147.17;100.00;50076.31;5016478;28;51133;-55
2022/01/08 10:44:47;;;;;;;;;5.75;4.50;;;;;-147.17;100.00;50064.50;5021416;28;51502;-57
2022/01/08 10:47:17;;;;;;;;;7.75;5.25;;;;;-147.17;100.00;50076.31;5016932;28;51857;-56
2022/01/08 10:49:47;;;;;;;;;4.00;4.00;;;;;-147.17;100.00;50048.75;5021789;28;51064;-54
2022/01/08 10:52:19;;;;;;;;;4.00;3.33;;;;;-147.17;100.00;50044.81;5019554;28;52085;-56
2022/01/08 10:54:57;;;;;;;;;6.00;5.00;;;;;-147.17;100.00;50062.53;5023152;28;51179;-55
2022/01/08 10:57:35;;;;;;;;;6.00;5.75;;;;;-147.17;100.00;50058.59;5016188;28;51896;-55
2022/01/08 11:00:03;;;;;;;;;6.00;5.00;;;;;-147.17;100.00;50029.06;5014770;28;51456;-55
2022/01/08 11:02:29;;;;;;;;;7.00;7.00;;;;;-147.17;100.00;50027.09;5017108;28;51260;-55
2022/01/08 11:04:55;;;;;;;;;5.25;4.00;;;;;-147.17;100.00;50044.81;5025337;28;51208;-57
2022/01/08 11:07:30;;;;;;;;;6.00;4.75;;;;;-147.17;100.00;50060.56;5019455;28;51247;-56
2022/01/08 11:10:05;;;;;;;;;7.33;5.33;;;;;-147.17;100.00;50068.44;5017816;28;51286;-56
2022/01/08 11:12:40;;;;;;;;;6.50;4.75;;;;;-147.17;100.00;50064.50;5010902;28;55243;-56
2022/01/08 11:17:49;;;;;;;;;3.00;3.00;;;;;-147.17;100.00;50056.63;5018701;28;51192;-55
2022/01/08 11:20:19;;;;;;;;;6.25;4.75;;;;;-147.17;100.00;50092.03;5022257;28;51062;-57
2022/01/08 11:22:50;;;;;;;;;4.50;3.25;;;;;-147.17;100.00;50101.88;5014869;28;51025;-58
2022/01/08 11:25:17;;;;;;;;;5.33;4.33;;;;;-147.17;100.00;50056.63;5022769;28;51162;-54
2022/01/08 11:27:54;;;;;;;;;6.50;4.75;;;;;-147.17;100.00;50088.13;5021980;28;51248;-56
2022/01/08 11:30:26;;;;;;;;;4.33;4.00;;;;;-147.17;100.00;50060.56;5019773;28;51064;-55
2022/01/08 11:32:56;;;;;;;;;8.00;7.50;;;;;-147.17;100.00;50058.59;5021171;28;51171;-56